This is the latest recevied weather packets stored in our database for station/object HP1COO-13. If no packets are shown the sender has not sent any weather packets the latest 10 day(s).
| Time | Temp. | Humidity | Pressure | Rain* | Wind** | Luminosity | Snow |
|---|---|---|---|---|---|---|---|
| 1777651641 | 31.11° C | 75% | 1007.4 hPa | 0 mm | - | - | - |
| 1777651008 | 31.11° C | 75% | 1007.6 hPa | 0 mm | - | - | - |
| 1777649742 | 31.11° C | 76% | 1007.4 hPa | 0 mm | - | - | - |
| 1777649109 | 31.11° C | 77% | 1007.8 hPa | 0 mm | - | - | - |
| 1777648476 | 30.56° C | 77% | 1007.7 hPa | 0 mm | - | - | - |
| 1777647843 | 31.11° C | 78% | 1007.6 hPa | 0 mm | - | - | - |
| 1777647210 | 31.11° C | 77% | 1007.6 hPa | 0 mm | - | - | - |
| 1777646577 | 31.11° C | 75% | 1007.6 hPa | 0 mm | - | - | - |
| 1777645311 | 30.56° C | 78% | 1007.6 hPa | 0 mm | - | - | - |
| 1777644678 | 30° C | 81% | 1007.9 hPa | 0 mm | - | - | - |
| 1777644045 | 30° C | 82% | 1007.7 hPa | 0 mm | - | - | - |
| 1777643412 | 28.89° C | 83% | 1007.5 hPa | 0 mm | - | - | - |
| 1777642779 | 28.89° C | 85% | 1007.5 hPa | 0 mm | - | - | - |
| 1777642146 | 28.89° C | 85% | 1007.2 hPa | 0 mm | - | - | - |
| 1777641513 | 28.89° C | 85% | 1007.3 hPa | 0 mm | - | - | - |
| 1777640880 | 27.78° C | 88% | 1007.1 hPa | 0 mm | - | - | - |
| 1777640247 | 27.22° C | 90% | 1006.8 hPa | 0 mm | - | - | - |
| 1777639614 | 26.67° C | 92% | 1006.9 hPa | 0 mm | - | - | - |
| 1777638981 | 26.67° C | 92% | 1006.6 hPa | 0 mm | - | - | - |
| 1777638348 | 26.67° C | 92% | 1006.6 hPa | 0 mm | - | - | - |
| 1777637715 | 26.67° C | 93% | 1006.2 hPa | 0 mm | - | - | - |
| 1777637082 | 26.11° C | 94% | 1006 hPa | 0 mm | - | - | - |
| 1777636449 | 26.11° C | 94% | 1005.9 hPa | 0 mm | - | - | - |
| 1777635816 | 25.56° C | 95% | 1006 hPa | 0 mm | - | - | - |
| 1777635183 | 25.56° C | 96% | 1005.8 hPa | 0 mm | - | - | - |
* Rain latest hour (hover to see other rain measurements)
** Current wind speed in m/s (hover to see current wind gust speed)